Time;durP1;ratioP1;P1;durP2;ratioP2;P2;SDS_P1;SDS_P2;PMS_P1;PMS_P2;Temp;Humidity;BMP_temperature;BMP_pressure;BME280_temperature;BME280_humidity;BME280_pressure;Samples;Min_cycle;Max_cycle;Signal;HPM_P1;HPM_P2
2023/03/29 00:00:40;;;;;;;5.03;2.80;;;3.30;1.00;;;;;;6212375;23;20213;-82
2023/03/29 00:03:06;;;;;;;4.77;3.13;;;3.30;1.00;;;;;;6185699;23;20162;-79
2023/03/29 00:05:34;;;;;;;6.90;3.30;;;3.20;1.00;;;;;;6211798;23;20265;-82
2023/03/29 00:08:02;;;;;;;7.13;3.43;;;3.20;1.00;;;;;;6211986;23;20151;-80
2023/03/29 00:10:30;;;;;;;8.67;3.37;;;3.10;1.00;;;;;;6184964;23;20479;-80
2023/03/29 00:12:56;;;;;;;5.03;2.67;;;3.10;1.00;;;;;;6184993;23;20562;-79
2023/03/29 00:15:21;;;;;;;9.07;3.03;;;3.10;1.00;;;;;;6185082;23;20171;-79
2023/03/29 00:17:48;;;;;;;5.20;2.80;;;3.20;1.00;;;;;;6212204;23;20150;-79
2023/03/29 00:20:14;;;;;;;6.13;2.50;;;3.20;1.00;;;;;;6212470;23;20154;-80
2023/03/29 00:22:43;;;;;;;4.50;2.50;;;3.20;1.00;;;;;;6212153;23;20918;-80
2023/03/29 00:25:10;;;;;;;4.93;2.63;;;3.10;1.00;;;;;;6185253;23;20837;-81
2023/03/29 00:27:35;;;;;;;5.03;2.57;;;3.20;1.00;;;;;;6212151;23;20169;-81
2023/03/29 00:30:03;;;;;;;5.50;2.87;;;3.20;1.00;;;;;;6211019;23;20213;-81
2023/03/29 00:32:29;;;;;;;5.50;2.90;;;3.20;1.00;;;;;;6185371;23;20162;-79
2023/03/29 00:34:55;;;;;;;4.53;2.47;;;3.20;1.00;;;;;;6210963;23;20170;-80
2023/03/29 00:37:25;;;;;;;3.83;2.80;;;3.20;1.00;;;;;;6184992;23;20368;-80
2023/03/29 00:39:52;;;;;;;4.30;2.23;;;3.20;1.00;;;;;;6184818;23;20154;-81
2023/03/29 00:42:18;;;;;;;5.73;2.67;;;3.20;1.00;;;;;;6211777;23;20166;-80
2023/03/29 00:45:15;;;;;;;4.57;2.80;;;3.20;1.00;;;;;;6211227;23;20646;-78
2023/03/29 00:47:49;;;;;;;7.13;2.67;;;3.20;1.00;;;;;;6184167;23;20170;-78
2023/03/29 00:50:28;;;;;;;5.93;2.83;;;3.20;1.00;;;;;;6184471;23;20161;-80
2023/03/29 00:53:11;;;;;;;4.77;2.70;;;3.20;1.00;;;;;;6184744;23;20216;-80
2023/03/29 00:55:46;;;;;;;5.07;2.67;;;3.20;1.00;;;;;;6183759;23;20215;-79
2023/03/29 00:58:16;;;;;;;4.03;2.70;;;3.20;1.00;;;;;;6210399;23;20155;-79
2023/03/29 01:00:50;;;;;;;4.90;2.63;;;3.20;1.00;;;;;;6210617;23;20154;-81
2023/03/29 01:03:23;;;;;;;3.57;2.50;;;3.20;1.00;;;;;;6183537;23;20229;-81
2023/03/29 01:05:55;;;;;;;5.60;2.30;;;3.30;1.00;;;;;;6210193;23;20182;-81
2023/03/29 01:08:28;;;;;;;4.13;2.50;;;3.30;1.00;;;;;;6210224;23;20639;-79
2023/03/29 01:11:29;;;;;;;5.53;2.87;;;3.20;1.00;;;;;;6210255;23;20189;-79
2023/03/29 01:14:01;;;;;;;3.93;2.53;;;3.20;1.00;;;;;;6184765;23;20154;-79
2023/03/29 01:16:29;;;;;;;4.73;2.87;;;3.20;1.00;;;;;;6187717;23;20183;-79
2023/03/29 01:18:57;;;;;;;3.40;2.53;;;3.20;1.00;;;;;;6187117;23;21037;-80
2023/03/29 01:21:35;;;;;;;5.47;2.80;;;3.10;1.00;;;;;;6187909;23;20186;-80
2023/03/29 01:24:27;;;;;;;4.17;2.70;;;3.00;1.00;;;;;;6210816;23;20147;-78
2023/03/29 01:27:02;;;;;;;4.63;2.53;;;2.90;1.00;;;;;;6209369;23;20245;-78
2023/03/29 01:29:34;;;;;;;6.07;3.20;;;2.90;1.00;;;;;;6209647;23;20169;-79
2023/03/29 01:32:37;;;;;;;5.40;2.90;;;2.80;1.00;;;;;;6208742;23;20847;-79
2023/03/29 01:35:14;;;;;;;6.43;3.03;;;2.80;1.00;;;;;;6208648;23;20165;-79
2023/03/29 01:38:08;;;;;;;5.63;2.93;;;2.70;1.00;;;;;;6181553;23;20147;-79
2023/03/29 01:40:34;;;;;;;4.57;2.90;;;2.60;1.00;;;;;;6181368;23;20154;-78
2023/03/29 01:43:25;;;;;;;6.67;3.03;;;2.60;1.00;;;;;;6206412;23;20171;-78
2023/03/29 01:46:13;;;;;;;6.53;3.30;;;2.60;1.00;;;;;;6207420;23;20208;-78
2023/03/29 01:48:53;;;;;;;5.47;2.90;;;2.60;1.00;;;;;;6180287;23;20150;-78
2023/03/29 01:51:39;;;;;;;5.07;3.00;;;2.50;1.00;;;;;;6180661;23;20483;-78
2023/03/29 01:54:27;;;;;;;7.40;3.53;;;2.50;1.00;;;;;;6180732;23;20155;-79
2023/03/29 01:56:53;;;;;;;5.83;2.60;;;2.50;1.00;;;;;;6207566;23;20216;-78
2023/03/29 01:59:25;;;;;;;4.10;2.77;;;2.50;1.00;;;;;;6181481;23;20272;-78
2023/03/29 02:01:56;;;;;;;5.83;3.20;;;2.40;1.00;;;;;;6180941;23;20154;-80
2023/03/29 02:04:27;;;;;;;4.93;3.00;;;2.40;1.00;;;;;;6180853;23;20446;-78
2023/03/29 02:06:55;;;;;;;5.63;2.83;;;2.30;1.00;;;;;;6207102;23;20181;-78
2023/03/29 02:09:22;;;;;;;5.03;2.90;;;2.20;1.00;;;;;;6180935;23;20162;-78
2023/03/29 02:11:50;;;;;;;3.83;2.90;;;2.20;1.00;;;;;;6180705;23;20297;-78
2023/03/29 02:14:15;;;;;;;4.17;2.50;;;2.20;1.00;;;;;;6206998;23;20154;-78
2023/03/29 02:16:41;;;;;;;5.60;2.50;;;2.20;1.00;;;;;;6180636;23;20162;-78
2023/03/29 02:19:09;;;;;;;5.77;2.90;;;2.20;1.00;;;;;;6180284;23;20159;-79
2023/03/29 02:21:46;;;;;;;4.27;2.67;;;2.20;1.00;;;;;;6180272;23;20165;-79
2023/03/29 02:24:15;;;;;;;5.03;2.33;;;2.20;1.00;;;;;;6206763;23;20230;-79
2023/03/29 02:26:41;;;;;;;3.93;2.50;;;2.30;1.00;;;;;;6180344;23;20224;-78
2023/03/29 02:29:07;;;;;;;5.27;2.27;;;2.40;1.00;;;;;;6208778;23;20150;-79
2023/03/29 02:31:48;;;;;;;3.60;2.03;;;2.60;1.00;;;;;;6210808;23;20169;-79
2023/03/29 02:34:18;;;;;;;4.07;1.93;;;3.00;1.00;;;;;;6210308;23;20571;-79
2023/03/29 02:36:51;;;;;;;2.67;1.93;;;3.30;1.00;;;;;;6183244;23;20251;-79
2023/03/29 02:39:17;;;;;;;4.10;2.27;;;3.50;1.00;;;;;;6210465;23;20166;-79
2023/03/29 02:41:47;;;;;;;4.13;1.90;;;3.60;1.00;;;;;;6182890;23;20182;-80
2023/03/29 02:44:19;;;;;;;2.60;1.87;;;3.70;1.00;;;;;;6210628;23;20154;-80
2023/03/29 02:46:47;;;;;;;4.63;2.20;;;3.70;1.00;;;;;;6209411;23;20248;-80
2023/03/29 02:49:13;;;;;;;4.63;2.30;;;3.70;1.00;;;;;;6210013;23;20200;-81
2023/03/29 02:51:39;;;;;;;5.20;2.70;;;3.60;1.00;;;;;;6209822;23;20218;-81
2023/03/29 02:54:11;;;;;;;3.97;2.60;;;3.50;1.00;;;;;;6182969;23;20154;-79
2023/03/29 02:56:46;;;;;;;5.20;2.20;;;3.40;1.00;;;;;;6182729;23;20497;-80
2023/03/29 02:59:12;;;;;;;5.17;2.27;;;3.30;1.00;;;;;;6210716;23;20146;-79
2023/03/29 03:01:41;;;;;;;4.20;2.47;;;3.20;1.00;;;;;;6209727;23;20192;-80
2023/03/29 03:04:08;;;;;;;5.17;2.40;;;3.20;1.00;;;;;;6209985;23;20544;-79
2023/03/29 03:06:35;;;;;;;3.47;2.23;;;3.10;1.00;;;;;;6209925;23;20185;-78
2023/03/29 03:09:01;;;;;;;7.53;2.70;;;3.00;1.00;;;;;;6210435;23;20151;-79
2023/03/29 03:11:26;;;;;;;4.17;2.33;;;3.00;1.00;;;;;;6207948;23;20229;-79
2023/03/29 03:13:52;;;;;;;2.87;2.20;;;3.00;1.00;;;;;;6208225;23;20158;-79
2023/03/29 03:16:17;;;;;;;4.07;2.10;;;3.10;1.00;;;;;;6208473;23;20177;-78
2023/03/29 03:18:44;;;;;;;5.30;2.50;;;3.30;1.00;;;;;;6181949;23;20166;-79
2023/03/29 03:21:10;;;;;;;4.33;2.23;;;3.50;1.00;;;;;;6181559;23;20166;-78
2023/03/29 03:23:35;;;;;;;5.00;2.30;;;3.60;1.00;;;;;;6208177;23;20773;-78
2023/03/29 03:26:01;;;;;;;3.53;2.47;;;3.70;1.00;;;;;;6181532;23;20268;-78
2023/03/29 03:28:27;;;;;;;4.63;2.60;;;3.80;1.00;;;;;;6208058;23;20170;-79
2023/03/29 03:30:53;;;;;;;4.97;2.23;;;4.00;1.00;;;;;;6182513;23;20158;-80
2023/03/29 03:33:19;;;;;;;3.83;2.57;;;4.20;1.00;;;;;;6210272;23;20602;-78
2023/03/29 03:35:45;;;;;;;4.17;2.60;;;4.30;1.00;;;;;;6210602;23;20170;-79
2023/03/29 03:38:11;;;;;;;3.73;2.80;;;4.30;1.00;;;;;;6183183;23;20165;-78
2023/03/29 03:40:37;;;;;;;4.57;2.50;;;4.40;1.00;;;;;;6209911;23;20158;-79
2023/03/29 03:43:02;;;;;;;3.93;2.80;;;4.40;1.00;;;;;;6209608;23;20996;-79
2023/03/29 03:45:28;;;;;;;3.30;2.40;;;4.40;1.00;;;;;;6209525;23;20603;-78
2023/03/29 03:47:54;;;;;;;4.43;3.03;;;4.40;1.00;;;;;;6210254;23;20151;-78
2023/03/29 03:50:20;;;;;;;4.30;2.97;;;4.40;1.00;;;;;;6183168;23;20161;-78
2023/03/29 03:52:45;;;;;;;5.17;3.03;;;4.40;1.00;;;;;;6210317;23;20182;-79
2023/03/29 03:55:11;;;;;;;4.80;3.10;;;4.40;1.00;;;;;;6209540;23;20638;-78
2023/03/29 03:57:37;;;;;;;3.67;2.90;;;4.50;1.00;;;;;;6183438;23;20614;-78
2023/03/29 04:00:17;;;;;;;3.03;2.73;;;4.50;1.00;;;;;;6209801;23;20159;-80
2023/03/29 04:02:44;;;;;;;3.77;3.10;;;4.50;1.00;;;;;;6182808;23;20587;-79
2023/03/29 04:05:10;;;;;;;4.77;3.47;;;4.40;1.00;;;;;;6209494;23;20268;-79
2023/03/29 04:07:35;;;;;;;5.23;3.40;;;4.50;1.00;;;;;;6210575;23;20586;-78
2023/03/29 04:10:01;;;;;;;4.10;3.33;;;4.40;1.00;;;;;;6209805;23;20186;-79
2023/03/29 04:12:26;;;;;;;3.53;3.23;;;4.50;1.00;;;;;;6210328;23;20456;-79
2023/03/29 04:14:52;;;;;;;4.27;3.43;;;4.50;1.00;;;;;;6182826;23;20638;-79
2023/03/29 04:17:17;;;;;;;3.77;3.40;;;4.40;1.00;;;;;;6181887;23;20158;-79
2023/03/29 04:19:43;;;;;;;4.07;3.10;;;4.40;1.00;;;;;;6210348;23;20178;-79
2023/03/29 04:22:09;;;;;;;4.50;3.70;;;4.50;1.00;;;;;;6183372;23;20288;-79
2023/03/29 04:24:35;;;;;;;4.03;3.63;;;4.40;1.00;;;;;;6182994;23;20241;-78
2023/03/29 04:27:01;;;;;;;5.03;4.20;;;4.50;1.00;;;;;;6210060;23;20182;-79
2023/03/29 04:29:27;;;;;;;4.23;3.87;;;4.40;1.00;;;;;;6182792;23;20185;-78
2023/03/29 04:31:53;;;;;;;4.83;3.83;;;4.40;1.00;;;;;;6209834;23;20200;-79
2023/03/29 04:34:19;;;;;;;4.17;3.77;;;4.30;1.00;;;;;;6209325;23;20157;-79
2023/03/29 04:36:44;;;;;;;4.57;4.00;;;4.20;1.00;;;;;;6209349;23;20946;-78
2023/03/29 04:39:10;;;;;;;4.43;4.03;;;4.20;1.00;;;;;;6181708;23;20229;-79
2023/03/29 04:41:35;;;;;;;4.30;3.90;;;4.10;1.00;;;;;;6207106;23;20180;-79
2023/03/29 04:44:01;;;;;;;5.03;4.13;;;4.00;1.00;;;;;;6180840;23;20190;-78
2023/03/29 04:46:27;;;;;;;4.30;3.90;;;3.90;1.00;;;;;;6181467;23;20186;-79
2023/03/29 04:48:53;;;;;;;5.20;4.17;;;3.80;1.00;;;;;;6208808;23;20178;-79
2023/03/29 04:51:21;;;;;;;4.17;3.77;;;3.70;1.00;;;;;;6181781;23;20162;-79
2023/03/29 04:53:48;;;;;;;4.53;4.03;;;3.70;1.00;;;;;;6210005;23;20228;-79
2023/03/29 04:56:15;;;;;;;5.00;4.50;;;3.70;1.00;;;;;;6209052;23;20177;-78
2023/03/29 04:58:41;;;;;;;5.70;4.37;;;3.70;1.00;;;;;;6182194;23;20185;-79
2023/03/29 05:01:06;;;;;;;4.87;4.03;;;3.70;1.00;;;;;;6208757;23;20181;-79
2023/03/29 05:03:33;;;;;;;5.50;4.23;;;3.70;1.00;;;;;;6210589;23;20159;-80
2023/03/29 05:06:05;;;;;;;4.93;4.43;;;3.70;1.00;;;;;;6209879;23;20217;-79
2023/03/29 05:08:32;;;;;;;4.67;4.17;;;3.70;1.00;;;;;;6210470;23;20135;-80
2023/03/29 05:10:57;;;;;;;5.53;4.33;;;3.70;1.00;;;;;;6182384;23;20162;-78
2023/03/29 05:13:23;;;;;;;5.10;4.33;;;3.80;1.00;;;;;;6209106;23;20253;-78
2023/03/29 05:15:48;;;;;;;4.17;3.87;;;3.80;1.00;;;;;;6182956;23;20178;-79
2023/03/29 05:18:14;;;;;;;4.90;4.20;;;3.80;1.00;;;;;;6183325;23;20293;-80
2023/03/29 05:20:41;;;;;;;5.70;4.30;;;3.90;1.00;;;;;;6210464;23;20228;-79
2023/03/29 05:23:06;;;;;;;4.77;4.23;;;3.90;1.00;;;;;;6210630;23;20212;-80
2023/03/29 05:25:32;;;;;;;4.67;4.20;;;3.90;1.00;;;;;;6183831;23;20190;-79
2023/03/29 05:27:58;;;;;;;6.40;4.13;;;3.90;1.00;;;;;;6209519;23;20177;-79
2023/03/29 05:30:24;;;;;;;4.83;4.33;;;4.00;1.00;;;;;;6182369;23;20155;-79
2023/03/29 05:32:49;;;;;;;4.83;3.83;;;4.00;1.00;;;;;;6209136;23;20150;-79
2023/03/29 05:35:15;;;;;;;4.37;3.97;;;4.00;1.00;;;;;;6182792;23;20174;-79
2023/03/29 05:37:41;;;;;;;4.93;4.43;;;4.00;1.00;;;;;;6208894;23;20982;-80
2023/03/29 05:40:09;;;;;;;4.63;4.17;;;4.00;1.00;;;;;;6209073;23;20209;-78
2023/03/29 05:42:36;;;;;;;5.60;4.57;;;4.10;1.00;;;;;;6208232;23;20627;-79
2023/03/29 05:45:03;;;;;;;5.57;4.30;;;4.20;1.00;;;;;;6207864;23;20907;-79
2023/03/29 05:47:29;;;;;;;5.23;4.70;;;4.20;1.00;;;;;;6208641;23;20284;-79
2023/03/29 05:49:56;;;;;;;5.00;4.50;;;4.30;1.00;;;;;;6181625;23;20162;-78
2023/03/29 05:52:22;;;;;;;4.93;4.50;;;4.30;1.00;;;;;;6206825;23;20160;-81
2023/03/29 05:54:48;;;;;;;5.27;4.10;;;4.40;1.00;;;;;;6206935;23;20166;-78
2023/03/29 05:57:14;;;;;;;6.00;4.17;;;4.40;1.00;;;;;;6210826;23;20799;-78
2023/03/29 05:59:41;;;;;;;4.47;4.07;;;4.40;1.00;;;;;;6210585;23;20170;-79
2023/03/29 06:02:06;;;;;;;4.90;4.40;;;4.50;1.00;;;;;;6180930;23;20616;-78
2023/03/29 06:04:32;;;;;;;4.27;3.87;;;4.50;1.00;;;;;;6180971;23;20194;-79
2023/03/29 06:07:00;;;;;;;5.03;4.63;;;4.50;1.00;;;;;;6207913;23;20485;-78
2023/03/29 06:09:26;;;;;;;4.50;4.10;;;4.60;1.00;;;;;;6210106;23;20210;-79
2023/03/29 06:11:52;;;;;;;6.03;4.20;;;4.70;1.00;;;;;;6209228;23;20184;-79
2023/03/29 06:14:18;;;;;;;4.73;4.30;;;4.70;1.00;;;;;;6181730;23;20216;-78
2023/03/29 06:16:44;;;;;;;5.33;4.43;;;4.80;1.00;;;;;;6182011;23;20162;-78
2023/03/29 06:19:09;;;;;;;4.40;4.00;;;4.90;1.00;;;;;;6208757;23;20527;-78
2023/03/29 06:21:35;;;;;;;4.83;4.33;;;4.90;1.00;;;;;;6208341;23;20209;-79
2023/03/29 06:24:00;;;;;;;6.27;5.03;;;5.00;1.00;;;;;;6182244;23;20161;-79
2023/03/29 06:26:29;;;;;;;6.13;5.50;;;5.10;1.00;;;;;;6208775;23;20190;-79
2023/03/29 06:28:55;;;;;;;9.80;7.77;;;5.20;1.00;;;;;;6181866;23;20182;-79
2023/03/29 06:31:20;;;;;;;14.80;9.93;;;5.20;1.00;;;;;;6208542;23;20150;-80
2023/03/29 06:33:46;;;;;;;13.17;9.47;;;5.20;1.00;;;;;;6181360;23;20224;-79
2023/03/29 06:36:14;;;;;;;13.90;10.67;;;5.30;1.00;;;;;;6211874;23;20236;-79
2023/03/29 06:38:40;;;;;;;17.37;11.80;;;5.40;1.00;;;;;;6212163;23;20168;-79
2023/03/29 06:41:09;;;;;;;11.37;8.50;;;5.50;1.00;;;;;;6208879;23;20251;-79
2023/03/29 06:43:35;;;;;;;5.80;5.13;;;5.50;1.00;;;;;;6209237;23;20204;-79
2023/03/29 06:46:01;;;;;;;9.23;7.63;;;5.70;1.00;;;;;;6208665;23;20244;-79
2023/03/29 06:48:27;;;;;;;5.97;5.03;;;5.80;1.00;;;;;;6209329;23;20165;-78
2023/03/29 06:50:53;;;;;;;5.87;5.27;;;5.90;1.00;;;;;;6210016;23;20154;-80
2023/03/29 06:53:19;;;;;;;5.77;4.97;;;5.90;1.00;;;;;;6210026;23;20189;-81
2023/03/29 06:55:44;;;;;;;6.03;5.33;;;6.10;1.00;;;;;;6209744;23;20170;-79
2023/03/29 06:58:10;;;;;;;5.47;4.87;;;6.20;1.00;;;;;;6182339;23;20165;-79
2023/03/29 07:00:36;;;;;;;6.43;4.73;;;6.30;1.00;;;;;;6183303;23;20638;-79
2023/03/29 07:03:08;;;;;;;6.73;4.53;;;6.40;1.00;;;;;;6209875;23;20158;-80
2023/03/29 07:05:39;;;;;;;10.43;4.93;;;6.50;1.00;;;;;;6209479;23;20180;-79
2023/03/29 07:10:40;;;;;;;5.80;4.83;;;6.40;1.00;;;;;;6210088;23;20150;-80
2023/03/29 07:13:07;;;;;;;5.90;4.93;;;6.30;1.00;;;;;;6183562;23;21104;-79
2023/03/29 07:15:33;;;;;;;6.10;5.00;;;6.30;1.00;;;;;;6210580;23;20174;-80
2023/03/29 07:18:02;;;;;;;5.60;4.83;;;6.40;1.00;;;;;;6183325;23;20158;-79
2023/03/29 07:20:27;;;;;;;5.47;4.97;;;7.00;1.00;;;;;;6209873;23;20578;-79
2023/03/29 07:22:53;;;;;;;6.77;4.87;;;6.50;1.00;;;;;;6182246;23;20258;-79
2023/03/29 07:25:21;;;;;;;5.33;4.77;;;6.70;1.00;;;;;;6209873;23;20171;-79
2023/03/29 07:27:47;;;;;;;6.57;4.80;;;6.80;1.00;;;;;;6182683;23;20173;-78
2023/03/29 07:30:16;;;;;;;4.47;3.97;;;6.90;1.00;;;;;;6182106;23;20177;-80
2023/03/29 07:32:43;;;;;;;5.13;4.43;;;6.90;1.00;;;;;;6212311;23;20368;-79
2023/03/29 07:35:11;;;;;;;6.90;4.97;;;7.00;1.00;;;;;;6206713;23;20193;-80
2023/03/29 07:37:37;;;;;;;5.20;4.30;;;7.20;1.00;;;;;;6207914;23;20161;-79
2023/03/29 07:40:08;;;;;;;4.90;4.40;;;8.20;1.00;;;;;;6177805;23;20173;-79
2023/03/29 07:42:38;;;;;;;6.10;4.60;;;7.50;1.00;;;;;;6182085;23;20178;-80
2023/03/29 07:45:05;;;;;;;4.43;3.90;;;7.50;1.00;;;;;;6212421;23;20178;-81
2023/03/29 07:47:31;;;;;;;6.30;4.40;;;7.60;1.00;;;;;;6183114;23;20166;-80
2023/03/29 07:49:58;;;;;;;5.07;4.30;;;7.80;1.00;;;;;;6183912;23;20486;-80
2023/03/29 07:52:26;;;;;;;4.77;4.17;;;7.90;1.00;;;;;;6211887;23;20131;-80
2023/03/29 07:54:54;;;;;;;4.30;3.87;;;7.90;1.00;;;;;;6183770;23;20189;-79
2023/03/29 07:57:21;;;;;;;5.00;4.50;;;8.10;1.00;;;;;;6187520;23;20146;-80
2023/03/29 07:59:46;;;;;;;5.63;4.20;;;8.10;1.00;;;;;;6211160;23;20149;-80
2023/03/29 08:02:12;;;;;;;5.97;4.40;;;8.00;1.00;;;;;;6185144;23;20214;-80
2023/03/29 08:04:39;;;;;;;5.40;4.30;;;7.90;1.00;;;;;;6211890;23;20881;-81
2023/03/29 08:07:04;;;;;;;4.87;4.30;;;8.00;1.00;;;;;;6211687;23;20728;-80
2023/03/29 08:09:30;;;;;;;5.07;4.00;;;8.10;1.00;;;;;;6212075;23;20138;-80
2023/03/29 08:11:57;;;;;;;6.73;6.03;;;8.00;1.00;;;;;;6184417;23;20157;-80
2023/03/29 08:14:23;;;;;;;4.93;4.53;;;8.10;1.00;;;;;;6208018;23;20227;-81
2023/03/29 08:16:51;;;;;;;6.90;4.70;;;7.70;1.00;;;;;;6205696;23;20526;-79
2023/03/29 08:19:16;;;;;;;5.37;4.87;;;7.70;1.00;;;;;;6180161;23;20216;-79
2023/03/29 08:21:43;;;;;;;6.50;5.37;;;7.90;1.00;;;;;;6203618;23;20154;-79
2023/03/29 08:24:08;;;;;;;6.23;4.57;;;8.10;1.00;;;;;;6153288;23;20216;-79
2023/03/29 08:26:34;;;;;;;4.83;4.30;;;8.30;1.00;;;;;;6209702;23;20265;-79
2023/03/29 08:29:00;;;;;;;4.33;3.90;;;8.40;1.00;;;;;;6173829;23;20158;-79
2023/03/29 08:31:26;;;;;;;5.27;4.27;;;8.60;1.00;;;;;;6176140;23;20138;-80
2023/03/29 08:33:52;;;;;;;4.73;3.70;;;8.80;1.00;;;;;;6205170;23;20147;-79
2023/03/29 08:36:18;;;;;;;5.47;4.17;;;9.00;1.00;;;;;;6178059;23;20664;-80
2023/03/29 08:38:44;;;;;;;5.00;3.63;;;9.00;1.00;;;;;;6178349;23;20514;-79
2023/03/29 08:41:37;;;;;;;4.40;3.43;;;8.90;1.00;;;;;;6205037;23;20442;-79
2023/03/29 08:44:30;;;;;;;4.37;3.47;;;9.00;1.00;;;;;;6204409;23;20143;-79
2023/03/29 08:47:27;;;;;;;4.20;3.70;;;9.20;1.00;;;;;;6205258;23;20748;-78
2023/03/29 08:49:55;;;;;;;4.63;3.37;;;9.10;1.00;;;;;;6204842;23;20197;-79
2023/03/29 08:52:47;;;;;;;5.37;3.17;;;8.90;1.00;;;;;;6204412;23;20586;-79
2023/03/29 08:55:37;;;;;;;3.90;3.00;;;8.90;1.00;;;;;;6205024;23;20181;-79
2023/03/29 08:58:10;;;;;;;4.47;3.37;;;9.00;1.00;;;;;;6178289;23;20189;-79
2023/03/29 09:00:43;;;;;;;4.23;3.07;;;9.10;1.00;;;;;;6206326;23;20144;-80
2023/03/29 09:03:34;;;;;;;5.30;3.87;;;9.00;1.00;;;;;;6177952;23;20193;-79
2023/03/29 09:06:05;;;;;;;3.03;2.73;;;9.00;1.00;;;;;;6177724;23;20194;-79
2023/03/29 09:08:36;;;;;;;4.03;3.20;;;9.00;1.00;;;;;;6177231;23;20151;-79
2023/03/29 09:11:07;;;;;;;4.07;3.27;;;9.00;1.00;;;;;;6203684;23;20143;-79
2023/03/29 09:14:10;;;;;;;3.87;3.17;;;9.00;1.00;;;;;;6202810;23;20139;-79
2023/03/29 09:16:48;;;;;;;5.60;3.27;;;8.90;1.00;;;;;;6210701;23;20176;-79
2023/03/29 09:19:44;;;;;;;5.13;3.30;;;8.80;1.00;;;;;;6180596;23;20154;-79
2023/03/29 09:22:50;;;;;;;3.53;3.10;;;8.90;1.00;;;;;;6180976;23;20234;-79
2023/03/29 09:25:23;;;;;;;6.83;4.90;;;8.80;1.00;;;;;;6207519;23;20182;-81
2023/03/29 09:28:13;;;;;;;4.33;3.43;;;8.80;1.00;;;;;;6181433;23;20209;-79
2023/03/29 09:31:11;;;;;;;3.97;3.60;;;8.90;1.00;;;;;;6204127;23;20150;-79
2023/03/29 09:33:43;;;;;;;3.63;3.33;;;9.10;1.00;;;;;;6176505;23;20162;-80
2023/03/29 09:36:16;;;;;;;4.80;3.80;;;9.10;1.00;;;;;;6206442;23;20174;-80
2023/03/29 09:38:52;;;;;;;5.53;3.73;;;9.00;1.00;;;;;;6207991;23;20186;-79
2023/03/29 09:41:45;;;;;;;4.93;3.57;;;8.70;1.00;;;;;;6207717;23;20166;-80
2023/03/29 09:44:21;;;;;;;4.20;3.37;;;8.70;1.00;;;;;;6207792;23;20134;-79
2023/03/29 09:46:54;;;;;;;5.13;4.10;;;8.60;1.00;;;;;;6182016;23;20185;-80
2023/03/29 09:49:25;;;;;;;5.23;3.80;;;8.60;1.00;;;;;;6181105;23;20197;-80
2023/03/29 09:51:54;;;;;;;4.73;3.93;;;8.40;1.00;;;;;;6206865;23;20518;-80
2023/03/29 09:54:20;;;;;;;4.80;3.63;;;8.50;1.00;;;;;;6206790;23;20142;-80
2023/03/29 09:56:46;;;;;;;4.50;3.63;;;8.50;1.00;;;;;;6207281;23;20150;-80
2023/03/29 09:59:12;;;;;;;5.83;3.90;;;8.50;1.00;;;;;;6207126;23;20695;-79
2023/03/29 10:01:45;;;;;;;4.77;3.63;;;8.60;1.00;;;;;;6180835;23;20162;-80
2023/03/29 10:04:11;;;;;;;4.73;3.87;;;8.70;1.00;;;;;;6179582;23;20590;-79
2023/03/29 10:06:43;;;;;;;4.30;3.60;;;9.00;1.00;;;;;;6206004;23;20571;-80
2023/03/29 10:09:20;;;;;;;5.27;3.80;;;9.10;1.00;;;;;;6204543;23;20141;-79
2023/03/29 10:11:50;;;;;;;4.57;4.17;;;9.10;1.00;;;;;;6208860;23;20134;-80
2023/03/29 10:14:34;;;;;;;5.67;4.03;;;9.70;1.00;;;;;;6180407;23;20196;-80
2023/03/29 10:17:02;;;;;;;3.83;3.40;;;9.20;1.00;;;;;;6180091;23;20159;-81
2023/03/29 10:19:33;;;;;;;4.30;3.70;;;9.40;1.00;;;;;;6208042;23;20177;-80
2023/03/29 10:22:06;;;;;;;4.17;3.60;;;9.30;1.00;;;;;;6180345;23;20233;-80
2023/03/29 10:24:32;;;;;;;4.27;3.73;;;9.20;1.00;;;;;;6176673;23;20842;-80
2023/03/29 10:27:05;;;;;;;4.27;3.53;;;9.20;1.00;;;;;;6203873;23;20170;-79
2023/03/29 10:29:41;;;;;;;5.77;4.20;;;9.10;1.00;;;;;;6178107;23;20154;-81
2023/03/29 10:32:22;;;;;;;4.33;3.60;;;9.00;1.00;;;;;;6177128;23;20150;-79
2023/03/29 10:34:49;;;;;;;5.83;3.73;;;9.00;1.00;;;;;;6207591;23;20170;-81
2023/03/29 10:37:20;;;;;;;3.67;3.33;;;9.10;1.00;;;;;;6203835;23;20149;-78
2023/03/29 10:39:47;;;;;;;6.07;3.83;;;8.90;1.00;;;;;;6207289;23;20147;-80
2023/03/29 10:42:16;;;;;;;5.90;3.67;;;9.00;1.00;;;;;;6179905;23;20648;-78
2023/03/29 10:44:42;;;;;;;4.13;3.70;;;9.00;1.00;;;;;;6179782;23;20182;-80
2023/03/29 10:47:18;;;;;;;4.50;3.73;;;9.00;1.00;;;;;;6207452;23;20182;-80
2023/03/29 10:49:48;;;;;;;7.23;4.40;;;9.10;1.00;;;;;;6208268;23;20139;-80
2023/03/29 10:52:16;;;;;;;4.20;3.43;;;9.20;1.00;;;;;;6207641;23;20908;-80
2023/03/29 10:54:42;;;;;;;4.50;3.70;;;9.30;1.00;;;;;;6206386;23;20194;-79
2023/03/29 10:57:11;;;;;;;6.53;3.60;;;9.30;1.00;;;;;;6179653;23;20158;-79
2023/03/29 10:59:56;;;;;;;5.27;3.67;;;9.30;1.00;;;;;;6206422;23;20614;-81
2023/03/29 11:02:37;;;;;;;4.30;3.90;;;9.30;1.00;;;;;;6205504;23;20467;-80
2023/03/29 11:05:30;;;;;;;3.80;3.50;;;9.20;1.00;;;;;;6206323;23;20182;-80
2023/03/29 11:08:17;;;;;;;4.03;3.50;;;9.30;1.00;;;;;;6178958;23;20189;-80
2023/03/29 11:11:11;;;;;;;4.60;3.33;;;9.40;1.00;;;;;;6176387;23;20169;-80
2023/03/29 11:13:53;;;;;;;3.90;3.20;;;9.40;1.00;;;;;;6177470;23;20239;-80
2023/03/29 11:16:40;;;;;;;5.17;3.70;;;9.20;1.00;;;;;;6205983;23;20184;-77
2023/03/29 11:19:30;;;;;;;5.93;3.67;;;9.20;1.00;;;;;;6207453;23;20145;-78
2023/03/29 11:22:05;;;;;;;8.20;3.47;;;9.30;1.00;;;;;;6209293;23;20241;-79
2023/03/29 11:24:59;;;;;;;3.63;3.33;;;9.30;1.00;;;;;;6181386;23;20158;-79
2023/03/29 11:27:32;;;;;;;4.63;3.33;;;9.50;1.00;;;;;;6208302;23;20170;-79
2023/03/29 11:30:22;;;;;;;4.07;2.90;;;9.60;1.00;;;;;;6206350;23;20185;-79
2023/03/29 11:32:51;;;;;;;4.10;3.23;;;9.90;1.00;;;;;;6209483;23;20135;-78
2023/03/29 11:35:37;;;;;;;3.90;3.50;;;10.10;1.00;;;;;;6206231;23;20166;-80
2023/03/29 11:38:31;;;;;;;3.90;3.50;;;10.40;1.00;;;;;;6178290;23;20587;-79
2023/03/29 11:41:02;;;;;;;4.15;3.28;;;10.90;1.00;;;;;;6205588;23;20154;-78
2023/03/29 11:43:55;;;;;;;3.50;3.10;;;11.00;1.00;;;;;;6205889;23;20138;-78
2023/03/29 11:46:31;;;;;;;4.63;3.90;;;11.10;1.00;;;;;;6200708;23;20186;-79
2023/03/29 11:49:26;;;;;;;5.70;3.25;;;10.40;1.00;;;;;;6202300;23;20226;-79
2023/03/29 11:52:01;;;;;;;3.40;3.10;;;10.90;1.00;;;;;;6205564;23;20566;-78
2023/03/29 11:54:39;;;;;;;3.53;2.80;;;11.00;1.00;;;;;;6177320;23;20617;-79
2023/03/29 11:57:35;;;;;;;3.92;3.20;;;11.30;1.00;;;;;;6178765;23;20158;-78
2023/03/29 12:00:11;;;;;;;4.28;3.10;;;11.70;1.00;;;;;;6177879;23;20170;-79
2023/03/29 12:02:48;;;;;;;4.22;3.42;;;11.80;1.00;;;;;;6177708;23;20265;-78
2023/03/29 12:05:23;;;;;;;3.08;2.75;;;11.70;1.00;;;;;;6202729;23;20277;-78
2023/03/29 12:08:02;;;;;;;2.80;2.45;;;11.50;1.00;;;;;;6204104;23;20178;-78
2023/03/29 12:10:38;;;;;;;4.07;2.38;;;11.20;1.00;;;;;;6185805;23;20169;-78
2023/03/29 12:13:25;;;;;;;2.60;2.38;;;11.00;1.00;;;;;;6186027;23;20184;-78
2023/03/29 12:16:31;;;;;;;3.38;2.65;;;10.90;1.00;;;;;;6186208;23;20742;-77
2023/03/29 12:19:03;;;;;;;3.03;2.72;;;10.80;1.00;;;;;;6191122;23;20158;-78
2023/03/29 12:21:31;;;;;;;3.33;3.03;;;11.00;1.00;;;;;;6186208;23;20146;-78
2023/03/29 12:23:57;;;;;;;3.00;2.53;;;11.20;1.00;;;;;;6212926;23;20565;-78
2023/03/29 12:26:28;;;;;;;4.00;3.10;;;11.20;1.00;;;;;;6184300;23;20198;-79
2023/03/29 12:29:12;;;;;;;3.42;2.92;;;11.30;1.00;;;;;;6209955;23;20135;-83
2023/03/29 12:31:56;;;;;;;4.72;3.47;;;11.40;1.00;;;;;;6209102;23;20145;-79
2023/03/29 12:34:36;;;;;;;3.00;2.58;;;11.60;1.00;;;;;;6207753;23;20599;-79
2023/03/29 12:37:30;;;;;;;3.70;3.30;;;11.80;1.00;;;;;;6206502;23;20143;-79
2023/03/29 12:40:11;;;;;;;3.28;2.83;;;11.80;1.00;;;;;;6207023;23;20462;-79
2023/03/29 12:42:55;;;;;;;4.03;2.88;;;11.70;1.00;;;;;;6179817;23;20178;-78
2023/03/29 12:45:37;;;;;;;3.25;2.95;;;11.60;1.00;;;;;;6207425;23;20698;-79
2023/03/29 12:48:05;;;;;;;4.35;3.65;;;11.50;1.00;;;;;;6207176;23;20217;-79
2023/03/29 12:50:40;;;;;;;3.22;2.92;;;11.20;1.00;;;;;;6207532;23;20617;-79
2023/03/29 12:53:31;;;;;;;3.10;2.70;;;11.20;1.00;;;;;;6179208;23;20157;-79
2023/03/29 12:56:07;;;;;;;2.65;2.45;;;11.20;1.00;;;;;;6180432;23;20530;-79
2023/03/29 12:58:38;;;;;;;3.75;3.00;;;11.40;1.00;;;;;;6180763;23;20352;-79
2023/03/29 13:01:25;;;;;;;2.92;2.70;;;11.70;1.00;;;;;;6207288;23;20146;-79
2023/03/29 13:04:18;;;;;;;4.20;3.38;;;12.00;1.00;;;;;;6179908;23;20558;-79
2023/03/29 13:06:55;;;;;;;3.38;2.97;;;12.20;1.00;;;;;;6207261;23;20221;-79
2023/03/29 13:09:34;;;;;;;3.70;3.10;;;12.30;1.00;;;;;;6181128;23;20246;-79
2023/03/29 13:12:09;;;;;;;3.90;3.22;;;12.10;1.00;;;;;;6207670;23;20143;-79
2023/03/29 13:14:39;;;;;;;3.80;3.00;;;12.30;1.00;;;;;;6203978;23;20178;-79
2023/03/29 13:17:18;;;;;;;3.03;2.80;;;12.30;1.00;;;;;;6203045;23;20223;-79
2023/03/29 13:23:13;;;;;;;5.25;3.58;;;12.40;1.00;;;;;;6176855;23;20558;-79
2023/03/29 13:26:02;;;;;;;3.50;3.10;;;12.40;1.00;;;;;;6205339;23;20174;-79
2023/03/29 13:28:43;;;;;;;3.30;3.00;;;12.50;1.00;;;;;;6204421;23;20228;-80
2023/03/29 13:31:27;;;;;;;3.33;3.13;;;12.30;1.00;;;;;;6203749;23;20621;-79
2023/03/29 13:34:05;;;;;;;3.67;3.00;;;12.10;1.00;;;;;;6177455;23;20173;-80
2023/03/29 13:36:57;;;;;;;3.53;3.20;;;12.00;1.00;;;;;;6179029;23;20182;-79